• Join FlightAware (Why Join?)
  • Login
  • US Flag 
05:15AM EDT


 

Airport Tracker/Info


-or-


 

Live Flight TrackerFlight Track Log ✈ DAL2082 ✈ 18-Oct-2013 ✈ KMHT - KATL

Flight Track Log - Related Links

Times and Time Zones

All times are in EDT time to prevent confusion due to time zone crossing. See the DAL2082 flight status page for this flight to view local times or setup timezone preferences in your user account.

Time Position Orientation Groundspeed Altitude Reporting Facility
EDT Latitude Longitude Course Direction KTS MPH feet Rate Location/Type
06:00PM 42.9500 -71.4333 115° Southeast 163 188 1,100  Level KA90
06:02PM 43.0500 -71.4833 340° North 254 292 4,800 2,520 Climbing KA90
06:03PM 42.7453 -71.7600 202° Southwest  Level Estimated
06:03PM 43.1167 -71.5000 350° North 266 306 7,700  Level KA90
06:04PM 42.7605 -71.6241 81° East  Level FlightAware Approximate
06:04PM 43.1142 -71.3394 91° East 304 350 10,300  Level Boston Center
06:05PM 42.6982 -71.7322 200° South  Level Estimated
06:05PM 43.0772 -71.1950 109° East 358 412 11,300  Level Boston Center
06:06PM 42.6553 -71.6080 115° Southeast  Level FlightAware Approximate
06:06PM 43.0686 -71.0078 94° East 428 493 13,600  Level Boston Center
06:07PM 42.9925 -70.9072 136° Southeast 395 455 15,700 2,160 Climbing Boston Center
06:08PM 42.8742 -70.9414 192° South 364 419 18,000 2,100 Climbing Boston Center
06:09PM 42.7725 -70.9892 199° South 375 432 20,000 1,800 Climbing Boston Center
06:10PM 42.6628 -71.0425 200° South 404 465 21,600 1,560 Climbing Boston Center
06:11PM 42.5508 -71.0986 200° South 421 484 23,100 1,620 Climbing Boston Center
06:12PM 42.4811 -71.2069 229° Southwest 387 445 24,900 1,860 Climbing Boston Center
06:13PM 42.4514 -71.3511 254° West 376 433 26,900 1,920 Climbing Boston Center
06:14PM 42.4278 -71.4867 257° West 376 433 28,800 1,860 Climbing Boston Center
06:15PM 42.3972 -71.6022 250° West 376 433 30,700 1,500 Climbing Boston Center
06:16PM 42.3522 -71.7153 242° Southwest 366 421 31,900 660 Climbing Boston Center
06:17PM 42.3028 -71.8339 241° Southwest 354 407 32,000  Climbing Boston Center
06:18PM 42.2514 -71.9519 240° Southwest 359 413 32,000  Level Boston Center
06:19PM 42.2019 -72.0731 241° Southwest 359 413 32,000  Level Boston Center
06:20PM 42.1522 -72.1881 240° Southwest 364 419 32,000  Level Boston Center
06:21PM 42.1022 -72.3031 240° Southwest 359 413 32,000  Level Boston Center
06:22PM 42.0522 -72.4233 241° Southwest 359 413 32,000  Level Boston Center
06:23PM 42.0044 -72.5406 241° Southwest 359 413 32,000  Level Boston Center
06:24PM 41.9542 -72.6494 238° Southwest 359 413 32,000  Level Boston Center
06:25PM 41.9061 -72.7692 242° Southwest 353 406 32,000  Level Boston Center
06:26PM 41.8556 -72.8778 238° Southwest 359 413 32,000  Level Boston Center
06:27PM 41.8114 -73.0028 245° Southwest 359 413 32,000  Level Boston Center
06:28PM 41.8231 -73.1336 277° West 352 405 32,000  Level Boston Center
06:29PM 41.8431 -73.2650 282° West 352 405 32,000  Level Boston Center
06:31PM 41.8481 -73.5194 272° West 343 395 32,000  Level New York Center
06:32PM 41.7792 -73.6139 226° Southwest 317 365 32,000  Level New York Center
06:33PM 41.7083 -73.6997 222° Southwest 333 383 32,000 -180 Level New York Center
06:34PM 41.6333 -73.7825 220° Southwest 343 395 31,700 -480 Descending New York Center
06:35PM 41.5581 -73.8761 223° Southwest 348 400 31,100 -600 Descending New York Center
06:36PM 41.4850 -73.9642 222° Southwest 353 406 30,600 -540 Descending New York Center
06:37PM 41.4117 -74.0519 222° Southwest 353 406 30,100 -300 Descending New York Center
06:38PM 41.3364 -74.1394 221° Southwest 353 406 30,000 -60 Descending New York Center
06:39PM 41.2697 -74.2133 220° Southwest 353 406 30,000  Level New York Center
06:40PM 41.1922 -74.2947 218° Southwest 358 412 30,000  Level New York Center
06:41PM 41.1208 -74.3875 224° Southwest 358 412 30,000  Level New York Center
06:42PM 41.0431 -74.4742 220° Southwest 358 412 30,000  Level New York Center
06:43PM 40.9675 -74.5606 221° Southwest 363 418 30,000  Level New York Center
06:44PM 40.8939 -74.6472 222° Southwest 363 418 30,000  Level New York Center
06:45PM 40.8117 -74.7383 220° Southwest 374 430 30,000  Level New York Center
06:46PM 40.7378 -74.8272 222° Southwest 374 430 30,000  Level New York Center
06:47PM 40.6617 -74.9156 221° Southwest 374 430 30,000  Level New York Center
06:48PM 40.5839 -74.9983 219° Southwest 369 425 30,000  Level New York Center
06:49PM 40.5178 -75.0981 229° Southwest 369 425 30,000  Level New York Center
06:50PM 40.4536 -75.1978 230° Southwest 369 425 30,000  Level New York Center
06:51PM 40.3911 -75.3028 232° Southwest 369 425 30,000  Level New York Center
06:52PM 40.3269 -75.4047 230° Southwest 369 425 30,000  Level New York Center
06:53PM 40.2625 -75.5036 230° Southwest 369 425 30,000  Level New York Center
06:54PM 40.2039 -75.6083 234° Southwest 364 419 30,000  Level New York Center
06:55PM 40.1472 -75.7186 236° Southwest 364 419 30,000  Level New York Center
06:56PM 40.0928 -75.8233 236° Southwest 364 419 30,000  Level New York Center
06:57PM 40.0422 -75.9333 239° Southwest 364 419 30,000  Level New York Center
06:58PM 40.0325 -76.0603 264° West 343 395 30,000  Level New York Center
06:59PM 40.0475 -76.1889 279° West 343 395 30,000  Level New York Center
07:00PM 40.0189 -76.3114 253° West 350 403 30,000  Level New York Center
07:01PM 39.9475 -76.4058 225° Southwest 345 397 30,000  Level New York Center
07:03PM 39.8286 -76.5586 225° Southwest 368 423 30,000  Level Washington Center
07:04PM 39.7547 -76.6522 224° Southwest 374 430 30,000  Level Washington Center
07:05PM 39.6853 -76.7403 224° Southwest 368 423 30,000  Level Washington Center
07:06PM 39.6136 -76.8306 224° Southwest 368 423 30,000  Level Washington Center
07:07PM 39.5397 -76.9236 224° Southwest 363 418 30,000  Level Washington Center
07:08PM 39.4656 -77.0108 222° Southwest 363 418 30,000  Level Washington Center
07:09PM 39.3856 -77.0953 219° Southwest 370 426 30,000  Level Washington Center
07:10PM 39.3072 -77.1769 219° Southwest 370 426 30,000  Level Washington Center
07:11PM 39.2292 -77.2608 220° Southwest 370 426 30,000  Level Washington Center
07:12PM 39.1528 -77.3447 220° Southwest 365 420 30,000  Level Washington Center
07:13PM 39.0869 -77.4369 227° Southwest 360 414 30,000  Level Washington Center
07:14PM 39.0122 -77.5444 228° Southwest 365 420 30,000  Level Washington Center
07:15PM 38.9544 -77.6283 228° Southwest 370 426 30,000  Level Washington Center
07:16PM 38.8797 -77.7356 228° Southwest 365 420 30,000  Level Washington Center
07:17PM 38.8092 -77.8347 228° Southwest 359 413 30,000  Level Washington Center
07:18PM 38.7447 -77.9258 228° Southwest 365 420 30,000  Level Washington Center
07:19PM 38.6783 -78.0169 227° Southwest 359 413 30,000  Level Washington Center
07:20PM 38.6139 -78.1106 229° Southwest 359 413 30,000  Level Washington Center
07:21PM 38.5494 -78.2011 228° Southwest 359 413 30,000  Level Washington Center
07:22PM 38.4828 -78.2969 228° Southwest 359 413 30,000  Level Washington Center
07:23PM 38.4136 -78.3953 228° Southwest 364 419 30,000  Level Washington Center
07:24PM 38.3447 -78.4933 228° Southwest 364 419 30,000  Level Washington Center
07:25PM 38.2756 -78.5911 228° Southwest 370 426 30,000 -120 Level Washington Center
07:26PM 38.2192 -78.6761 230° Southwest 370 426 29,800 -360 Descending Washington Center
07:27PM 38.1478 -78.7761 228° Southwest 376 433 29,300 -480 Descending Washington Center
07:28PM 38.0761 -78.8758 228° Southwest 381 438 28,900 -540 Descending Washington Center
07:29PM 37.9958 -78.9856 227° Southwest 381 438 28,300 -480 Descending Washington Center
07:30PM 37.9222 -79.0850 227° Southwest 387 445 28,000 -180 Descending Washington Center
07:31PM 37.8503 -79.1869 228° Southwest 387 445 28,000  Level Washington Center
07:32PM 37.7764 -79.2886 227° Southwest 387 445 28,000  Level Washington Center
07:33PM 37.7003 -79.3872 226° Southwest 393 452 28,000  Level Washington Center
07:34PM 37.6347 -79.4783 228° Southwest 393 452 28,000  Level Washington Center
07:35PM 37.5517 -79.5919 227° Southwest 398 458 28,000  Level Washington Center
07:36PM 37.4861 -79.6828 228° Southwest 398 458 28,000  Level Washington Center
07:37PM 37.4094 -79.7911 228° Southwest 416 479 28,000  Level Washington Center
07:38PM 37.3369 -79.8889 227° Southwest 411 473 28,000  Level Washington Center
07:40PM 37.1894 -80.0894 227° Southwest 403 464 28,000  Level Atlanta Center
07:41PM 37.1136 -80.1894 226° Southwest 403 464 28,000  Level Atlanta Center
07:42PM 37.0375 -80.2894 226° Southwest 403 464 28,000  Level Atlanta Center
07:43PM 36.9553 -80.4022 228° Southwest 403 464 28,000  Level Atlanta Center
07:44PM 36.8811 -80.5044 228° Southwest 403 464 28,000  Level Atlanta Center
07:45PM 36.8006 -80.6039 225° Southwest 408 470 28,000  Level Atlanta Center
07:46PM 36.7281 -80.7003 227° Southwest 396 456 28,000  Level Atlanta Center
07:47PM 36.6517 -80.7992 226° Southwest 396 456 28,000  Level Atlanta Center
07:48PM 36.5750 -80.9031 227° Southwest 396 456 28,000  Level Atlanta Center
07:49PM 36.5106 -80.9908 228° Southwest 401 461 28,000  Level Atlanta Center
07:50PM 36.4317 -81.0944 227° Southwest 408 470 28,000  Level Atlanta Center
07:51PM 36.3569 -81.1953 227° Southwest 408 470 28,000  Level Atlanta Center
07:52PM 36.2800 -81.2958 227° Southwest 408 470 28,000  Level Atlanta Center
07:53PM 36.2050 -81.3961 227° Southwest 401 461 28,000  Level Atlanta Center
07:54PM 36.1258 -81.4989 226° Southwest 406 467 28,000  Level Atlanta Center
07:55PM 36.0486 -81.5989 226° Southwest 406 467 28,000  Level Atlanta Center
07:56PM 35.9733 -81.6961 226° Southwest 399 459 28,000  Level Atlanta Center
07:57PM 35.8961 -81.7983 227° Southwest 404 465 28,000  Level Atlanta Center
07:58PM 35.8164 -81.8978 225° Southwest 409 471 28,000  Level Atlanta Center
07:59PM 35.7328 -82.0100 227° Southwest 409 471 28,000  Level Atlanta Center
08:00PM 35.6508 -82.1042 223° Southwest 403 464 28,000  Level Atlanta Center
08:01PM 35.5708 -82.1953 223° Southwest 403 464 28,000  Level Atlanta Center
08:02PM 35.4889 -82.2917 224° Southwest 403 464 28,000 -720 Level Atlanta Center
08:03PM 35.4067 -82.3825 222° Southwest 403 464 26,600 -1,320 Descending Atlanta Center
08:04PM 35.3203 -82.4783 222° Southwest 408 470 25,400 -1,260 Descending Atlanta Center
08:05PM 35.2381 -82.5742 224° Southwest 414 476 24,100 -720 Descending Atlanta Center
08:06PM 35.1617 -82.6567 221° Southwest 414 476 24,000 -60 Descending Atlanta Center
08:07PM 35.0750 -82.7494 221° Southwest 414 476 24,000  Level Atlanta Center
08:08PM 34.9925 -82.8447 223° Southwest 414 476 24,000  Level Atlanta Center
08:09PM 34.8975 -82.9422 220° Southwest 409 471 24,000  Level Atlanta Center
08:10PM 34.8108 -83.0369 222° Southwest 409 471 24,000  Level Atlanta Center
08:11PM 34.7300 -83.1314 224° Southwest 409 471 24,000  Level Atlanta Center
08:12PM 34.6453 -83.2283 223° Southwest 419 482 24,000  Level Atlanta Center
08:13PM 34.5581 -83.3225 222° Southwest 414 476 24,000 -960 Level Atlanta Center
08:14PM 34.4750 -83.4139 222° Southwest 414 476 22,100 -2,400 Descending Atlanta Center
08:15PM 34.3942 -83.5050 223° Southwest 409 471 19,300 -2,520 Descending Atlanta Center
08:16PM 34.3131 -83.5911 221° Southwest 401 461 17,100 -2,580 Descending Atlanta Center
08:17PM 34.2342 -83.6794 223° Southwest 394 453 14,200 -2,460 Descending Atlanta Center
08:18PM 34.1675 -83.7550 223° Southwest 382 440 12,200 -1,200 Descending Atlanta Center
08:19PM 34.0967 -83.8331 222° Southwest 361 415 11,900 -600 Descending Atlanta Center
08:20PM 34.0383 -83.8958 222° Southwest 310 357 11,000 -1,260 Descending Atlanta Center
08:21PM 33.9842 -83.9561 223° Southwest 277 319 9,400 -1,020 Descending Atlanta Center
08:22PM 33.9133 -83.9686 188° South 254 292 9,000 -480 Descending Atlanta Center
08:23PM 33.8297 -83.9664 179° South 266 306 8,500 -540 Descending Atlanta Center
08:24PM 33.7544 -83.9614 177° South 273 314 8,000 -540 Descending Atlanta Center
08:25PM 33.6858 -83.9839 195° South 267 307 7,500 -600 Descending Atlanta Center
08:26PM 33.6294 -84.0314 215° Southwest 249 287 6,900 -960 Descending Atlanta Center
08:27PM 33.6333 -84.1333 273° West 258 297 5,400 -1,320 Descending Atlanta TRACON
08:28PM 33.6333 -84.2167 270° West 246 283 4,100 -1,200 Descending Atlanta TRACON
08:29PM 33.6333 -84.2833 270° West 200 230 3,000 -960 Descending Atlanta TRACON
08:30PM 33.6333 -84.3500 270° West 154 177 2,200 -840 Descending Atlanta TRACON
08:31PM 33.6333 -84.3833 270° West 140 161 1,400 -840 Descending Atlanta TRACON